createdAt,value
2019-01-30T00:28:26.978Z,995.32
2019-01-30T00:28:27.550Z,995.34
2019-01-30T00:28:28.152Z,995.29
2019-01-30T00:28:28.751Z,995.28
2019-01-30T00:28:29.349Z,995.24
2019-01-30T00:28:29.954Z,995.22
2019-01-30T00:28:30.548Z,995.23
2019-01-30T00:28:31.147Z,995.21
2019-01-30T00:29:25.656Z,995.29
2019-01-30T00:29:26.227Z,995.31
2019-01-30T00:29:26.826Z,995.24
2019-01-30T00:29:27.428Z,995.27
2019-01-30T00:29:28.027Z,995.24
2019-01-30T00:29:28.627Z,995.21
2019-01-30T00:29:29.224Z,995.20
2019-01-30T00:29:29.825Z,995.20
2019-01-30T00:30:24.331Z,995.26
2019-01-30T00:30:24.902Z,995.28
2019-01-30T00:30:25.503Z,995.22
2019-01-30T00:30:26.101Z,995.19
2019-01-30T00:30:26.704Z,995.20
2019-01-30T00:30:27.302Z,995.21
2019-01-30T00:30:27.901Z,995.17
2019-01-30T00:30:28.500Z,995.12
2019-01-30T00:31:21.983Z,995.19
2019-01-30T00:31:22.557Z,995.19
2019-01-30T00:31:23.156Z,995.22
2019-01-30T00:31:23.756Z,995.20
2019-01-30T00:31:24.359Z,995.16
2019-01-30T00:31:24.957Z,995.15
2019-01-30T00:31:25.553Z,995.13
2019-01-30T00:31:26.154Z,995.13
2019-01-30T00:32:19.634Z,995.22
2019-01-30T00:32:20.208Z,995.20
2019-01-30T00:32:20.816Z,995.17
2019-01-30T00:32:21.407Z,995.16
2019-01-30T00:32:22.009Z,995.14
2019-01-30T00:32:22.609Z,995.09
2019-01-30T00:32:23.205Z,995.14
2019-01-30T00:32:23.805Z,995.10
2019-01-30T00:33:17.288Z,995.18
2019-01-30T00:33:17.860Z,995.18
2019-01-30T00:33:18.460Z,995.11
2019-01-30T00:33:19.059Z,995.10
2019-01-30T00:33:19.661Z,995.14
2019-01-30T00:33:20.263Z,995.09
2019-01-30T00:33:20.863Z,995.09
2019-01-30T00:33:21.581Z,995.09
2019-01-30T00:34:14.941Z,995.15
2019-01-30T00:34:15.514Z,995.16
2019-01-30T00:34:16.113Z,995.15
2019-01-30T00:34:16.712Z,995.11
2019-01-30T00:34:17.315Z,995.09
2019-01-30T00:34:17.912Z,995.07
2019-01-30T00:34:18.511Z,995.08
2019-01-30T00:34:19.110Z,995.08
2019-01-30T00:35:12.593Z,995.14
2019-01-30T00:35:13.164Z,995.15
2019-01-30T00:35:13.765Z,995.08
2019-01-30T00:35:14.367Z,995.12
2019-01-30T00:35:14.964Z,995.08
2019-01-30T00:35:15.563Z,995.06
2019-01-30T00:35:16.163Z,995.07
2019-01-30T00:35:16.764Z,995.04
2019-01-30T00:36:11.268Z,995.11
2019-01-30T00:36:11.840Z,995.13
2019-01-30T00:36:12.440Z,995.07
2019-01-30T00:36:13.039Z,995.03
2019-01-30T00:36:13.639Z,995.01
2019-01-30T00:36:14.244Z,995.00
2019-01-30T00:36:14.838Z,994.99
2019-01-30T00:36:15.437Z,995.00
2019-01-30T00:37:08.919Z,995.09
2019-01-30T00:37:09.493Z,995.06
2019-01-30T00:37:10.092Z,995.04
2019-01-30T00:37:10.691Z,995.04
2019-01-30T00:37:11.292Z,995.03
2019-01-30T00:37:11.914Z,995.02
2019-01-30T00:37:12.495Z,995.04
2019-01-30T00:37:13.091Z,995.00
2019-01-30T00:38:06.570Z,995.12
2019-01-30T00:38:07.144Z,995.08
2019-01-30T00:38:07.744Z,995.03
2019-01-30T00:38:08.344Z,995.01
2019-01-30T00:38:08.945Z,995.04
2019-01-30T00:38:09.543Z,995.01
2019-01-30T00:38:10.143Z,995.02
2019-01-30T00:38:10.743Z,995.02
2019-01-30T00:39:04.224Z,995.02
2019-01-30T00:39:04.796Z,995.03
2019-01-30T00:39:05.400Z,995.01
2019-01-30T00:39:05.995Z,994.97
2019-01-30T00:39:06.596Z,994.95
2019-01-30T00:39:07.213Z,994.96
2019-01-30T00:39:07.796Z,994.99
2019-01-30T00:39:08.395Z,994.96
2019-01-30T00:40:01.876Z,995.03
2019-01-30T00:40:02.448Z,995.04
2019-01-30T00:40:03.048Z,994.97
2019-01-30T00:40:03.648Z,995.01
2019-01-30T00:40:04.250Z,994.97
2019-01-30T00:40:04.848Z,994.97
2019-01-30T00:40:05.450Z,994.97
2019-01-30T00:40:06.048Z,994.94
2019-01-30T00:40:59.526Z,995.05
2019-01-30T00:41:00.101Z,995.03
2019-01-30T00:41:00.700Z,995.02
2019-01-30T00:41:01.300Z,995.01
2019-01-30T00:41:01.901Z,994.97
2019-01-30T00:41:02.500Z,994.97
2019-01-30T00:41:03.099Z,994.97
2019-01-30T00:41:03.700Z,994.99
2019-01-30T00:41:58.202Z,995.08
2019-01-30T00:41:58.870Z,995.02
2019-01-30T00:41:59.377Z,995.00
2019-01-30T00:41:59.974Z,995.00
2019-01-30T00:42:00.575Z,995.01
2019-01-30T00:42:01.174Z,994.95
2019-01-30T00:42:01.775Z,994.96
2019-01-30T00:42:02.374Z,994.92
2019-01-30T00:42:56.877Z,995.02
2019-01-30T00:42:57.452Z,994.98
2019-01-30T00:42:58.051Z,995.01
2019-01-30T00:42:58.650Z,994.99
2019-01-30T00:42:59.252Z,994.99
2019-01-30T00:42:59.852Z,994.96
2019-01-30T00:43:00.451Z,994.98
2019-01-30T00:43:01.052Z,994.95
2019-01-30T00:43:54.530Z,995.05
2019-01-30T00:43:55.102Z,995.02
2019-01-30T00:43:55.702Z,994.99
2019-01-30T00:43:56.306Z,994.94
2019-01-30T00:43:56.903Z,994.92
2019-01-30T00:43:57.502Z,994.95
2019-01-30T00:43:58.167Z,994.94
2019-01-30T00:43:58.706Z,994.93
2019-01-30T00:44:53.206Z,995.01
2019-01-30T00:44:53.778Z,995.02
2019-01-30T00:44:54.377Z,995.00
2019-01-30T00:44:54.978Z,994.98
2019-01-30T00:44:55.576Z,994.93
2019-01-30T00:44:56.177Z,994.94
2019-01-30T00:44:56.776Z,994.91
2019-01-30T00:44:57.380Z,994.91
2019-01-30T00:45:51.882Z,994.98
2019-01-30T00:45:52.453Z,994.93
2019-01-30T00:45:53.053Z,994.95
2019-01-30T00:45:53.653Z,994.93
2019-01-30T00:45:54.253Z,994.92
2019-01-30T00:45:54.854Z,994.91
2019-01-30T00:45:55.452Z,994.90
2019-01-30T00:45:56.053Z,994.90
2019-01-30T00:46:50.558Z,994.96
2019-01-30T00:46:51.132Z,994.99
2019-01-30T00:46:51.732Z,994.98
2019-01-30T00:46:52.329Z,994.90
2019-01-30T00:46:52.929Z,994.92
2019-01-30T00:46:53.530Z,994.91
2019-01-30T00:46:54.131Z,994.88
2019-01-30T00:46:54.728Z,994.90
2019-01-30T00:47:48.211Z,994.94
2019-01-30T00:47:48.784Z,994.95
2019-01-30T00:47:49.389Z,994.93
2019-01-30T00:47:50.033Z,994.89
2019-01-30T00:47:50.592Z,994.89
2019-01-30T00:47:51.181Z,994.86
2019-01-30T00:47:51.780Z,994.89
2019-01-30T00:47:52.383Z,994.88
2019-01-30T00:48:46.885Z,994.97
2019-01-30T00:48:47.457Z,994.92
2019-01-30T00:48:48.057Z,994.90
2019-01-30T00:48:48.657Z,994.89
2019-01-30T00:48:49.256Z,994.85
2019-01-30T00:48:49.856Z,994.84
2019-01-30T00:48:50.457Z,994.89
2019-01-30T00:48:51.057Z,994.89
2019-01-30T00:49:45.560Z,994.88
2019-01-30T00:49:46.134Z,994.90
2019-01-30T00:49:46.733Z,994.88
2019-01-30T00:49:47.334Z,994.86
2019-01-30T00:49:47.932Z,994.84
2019-01-30T00:49:48.533Z,994.83
2019-01-30T00:49:49.131Z,994.84
2019-01-30T00:49:49.735Z,994.80
2019-01-30T00:50:43.227Z,994.93
2019-01-30T00:50:43.789Z,994.91
2019-01-30T00:50:44.386Z,994.88
2019-01-30T00:50:44.987Z,994.90
2019-01-30T00:50:45.590Z,994.86
2019-01-30T00:50:46.186Z,994.87
2019-01-30T00:50:46.784Z,994.85
2019-01-30T00:50:47.386Z,994.85
2019-01-30T00:51:41.889Z,994.92
2019-01-30T00:51:42.461Z,994.89
2019-01-30T00:51:43.063Z,994.86
2019-01-30T00:51:43.670Z,994.86
2019-01-30T00:51:44.260Z,994.82
2019-01-30T00:51:44.859Z,994.84
2019-01-30T00:51:45.461Z,994.87
2019-01-30T00:51:46.065Z,994.82
2019-01-30T00:52:40.562Z,994.93
2019-01-30T00:52:41.137Z,994.89
2019-01-30T00:52:41.737Z,994.85
2019-01-30T00:52:42.335Z,994.86
2019-01-30T00:52:42.936Z,994.82
2019-01-30T00:52:43.535Z,994.84
2019-01-30T00:52:44.134Z,994.80
2019-01-30T00:52:44.735Z,994.78
2019-01-30T00:53:38.215Z,994.88
2019-01-30T00:53:38.788Z,994.88
2019-01-30T00:53:39.389Z,994.90
2019-01-30T00:53:39.990Z,994.86
2019-01-30T00:53:40.588Z,994.85
2019-01-30T00:53:41.188Z,994.84
2019-01-30T00:53:41.789Z,994.86
2019-01-30T00:53:42.388Z,994.83
2019-01-30T00:54:35.869Z,994.85
2019-01-30T00:54:36.441Z,994.87
2019-01-30T00:54:37.040Z,994.88
2019-01-30T00:54:37.640Z,994.88
2019-01-30T00:54:38.240Z,994.84
2019-01-30T00:54:38.841Z,994.84
2019-01-30T00:54:39.440Z,994.82
2019-01-30T00:54:40.040Z,994.83
2019-01-30T00:55:33.518Z,994.87
2019-01-30T00:55:34.093Z,994.83
2019-01-30T00:55:34.692Z,994.85
2019-01-30T00:55:35.291Z,994.83
2019-01-30T00:55:35.891Z,994.81
2019-01-30T00:55:36.492Z,994.81
2019-01-30T00:55:37.090Z,994.79
2019-01-30T00:55:37.691Z,994.75
2019-01-30T00:56:32.194Z,994.88
2019-01-30T00:56:32.766Z,994.88
2019-01-30T00:56:33.366Z,994.86
2019-01-30T00:56:33.969Z,994.89
2019-01-30T00:56:34.567Z,994.82
2019-01-30T00:56:35.170Z,994.81
2019-01-30T00:56:35.768Z,994.82
2019-01-30T00:56:36.367Z,994.83
2019-01-30T00:57:30.871Z,994.89
2019-01-30T00:57:31.443Z,994.89
2019-01-30T00:57:32.043Z,994.90
2019-01-30T00:57:32.642Z,994.83
2019-01-30T00:57:33.243Z,994.88
2019-01-30T00:57:33.843Z,994.85
2019-01-30T00:57:34.441Z,994.83
2019-01-30T00:57:35.041Z,994.83
2019-01-30T00:58:28.521Z,994.88
2019-01-30T00:58:29.095Z,994.91
2019-01-30T00:58:29.695Z,994.86
2019-01-30T00:58:30.299Z,994.88
2019-01-30T00:58:30.896Z,994.87
2019-01-30T00:58:31.494Z,994.85
2019-01-30T00:58:32.094Z,994.83
2019-01-30T00:58:32.695Z,994.81
2019-01-30T00:59:26.177Z,994.89
2019-01-30T00:59:26.747Z,994.85
2019-01-30T00:59:27.347Z,994.85
2019-01-30T00:59:27.950Z,994.84
2019-01-30T00:59:28.547Z,994.87
2019-01-30T00:59:29.146Z,994.80
2019-01-30T00:59:29.747Z,994.83
2019-01-30T00:59:30.347Z,994.83
2019-01-30T01:00:24.849Z,994.84
2019-01-30T01:00:25.423Z,994.88
2019-01-30T01:00:26.025Z,994.83
2019-01-30T01:00:26.621Z,994.80
2019-01-30T01:00:27.222Z,994.78
2019-01-30T01:00:27.821Z,994.78
2019-01-30T01:00:28.421Z,994.78
2019-01-30T01:00:29.020Z,994.80
2019-01-30T01:01:22.508Z,994.83
2019-01-30T01:01:23.076Z,994.82
2019-01-30T01:01:23.674Z,994.82
2019-01-30T01:01:24.276Z,994.83
2019-01-30T01:01:24.874Z,994.81
2019-01-30T01:01:25.476Z,994.83
2019-01-30T01:01:26.079Z,994.82
2019-01-30T01:01:26.674Z,994.79
2019-01-30T01:02:20.154Z,994.87
2019-01-30T01:02:20.726Z,994.84
2019-01-30T01:02:21.327Z,994.81
2019-01-30T01:02:21.925Z,994.83
2019-01-30T01:02:22.527Z,994.81
2019-01-30T01:02:23.125Z,994.76
2019-01-30T01:02:23.725Z,994.78
2019-01-30T01:02:24.325Z,994.79
2019-01-30T01:03:17.805Z,994.82
2019-01-30T01:03:18.379Z,994.81
2019-01-30T01:03:18.979Z,994.83
2019-01-30T01:03:19.579Z,994.80
2019-01-30T01:03:20.177Z,994.77
2019-01-30T01:03:20.778Z,994.79
2019-01-30T01:03:21.378Z,994.77
2019-01-30T01:03:21.977Z,994.79
2019-01-30T01:04:16.480Z,994.84
2019-01-30T01:04:17.053Z,994.84
2019-01-30T01:04:17.654Z,994.88
2019-01-30T01:04:18.252Z,994.85
2019-01-30T01:04:18.853Z,994.84
2019-01-30T01:04:19.454Z,994.79
2019-01-30T01:04:20.053Z,994.82
2019-01-30T01:04:20.653Z,994.78
2019-01-30T01:05:15.157Z,994.84
2019-01-30T01:05:15.728Z,994.86
2019-01-30T01:05:16.330Z,994.83
2019-01-30T01:05:16.929Z,994.85
2019-01-30T01:05:17.528Z,994.81
2019-01-30T01:05:18.128Z,994.85
2019-01-30T01:05:18.728Z,994.84
2019-01-30T01:05:19.329Z,994.82
2019-01-30T01:06:13.831Z,994.89
2019-01-30T01:06:14.418Z,994.89
2019-01-30T01:06:15.005Z,994.84
2019-01-30T01:06:15.608Z,994.82
2019-01-30T01:06:16.206Z,994.81
2019-01-30T01:06:16.804Z,994.78
2019-01-30T01:06:17.404Z,994.84
2019-01-30T01:06:18.004Z,994.82
2019-01-30T01:07:11.483Z,994.87
2019-01-30T01:07:12.057Z,994.88
2019-01-30T01:07:12.658Z,994.87
2019-01-30T01:07:13.259Z,994.86
2019-01-30T01:07:13.858Z,994.87
2019-01-30T01:07:14.457Z,994.85
2019-01-30T01:07:15.059Z,994.80
2019-01-30T01:07:15.657Z,994.80
2019-01-30T01:08:09.137Z,994.87
2019-01-30T01:08:09.709Z,994.88
2019-01-30T01:08:10.310Z,994.88
2019-01-30T01:08:10.909Z,994.85
2019-01-30T01:08:11.509Z,994.85
2019-01-30T01:08:12.109Z,994.84
2019-01-30T01:08:12.712Z,994.79
2019-01-30T01:08:13.307Z,994.82
2019-01-30T01:09:06.788Z,994.82
2019-01-30T01:09:07.361Z,994.86
2019-01-30T01:09:07.965Z,994.83
2019-01-30T01:09:08.560Z,994.82
2019-01-30T01:09:09.161Z,994.83
2019-01-30T01:09:09.786Z,994.83
2019-01-30T01:09:10.359Z,994.79
2019-01-30T01:09:10.960Z,994.82
2019-01-30T01:10:05.461Z,994.83
2019-01-30T01:10:06.036Z,994.83
2019-01-30T01:10:06.637Z,994.84
2019-01-30T01:10:07.236Z,994.81
2019-01-30T01:10:07.835Z,994.82
2019-01-30T01:10:08.435Z,994.79
2019-01-30T01:10:09.035Z,994.79
2019-01-30T01:10:09.635Z,994.76
2019-01-30T01:11:03.116Z,994.84
2019-01-30T01:11:03.689Z,994.83
2019-01-30T01:11:04.289Z,994.83
2019-01-30T01:11:04.888Z,994.82
2019-01-30T01:11:05.489Z,994.80
2019-01-30T01:11:06.088Z,994.82
2019-01-30T01:11:06.688Z,994.81
2019-01-30T01:11:07.288Z,994.79
2019-01-30T01:12:00.768Z,994.82
2019-01-30T01:12:01.341Z,994.82
2019-01-30T01:12:01.940Z,994.77
2019-01-30T01:12:02.539Z,994.82
2019-01-30T01:12:03.141Z,994.79
2019-01-30T01:12:03.740Z,994.74
2019-01-30T01:12:04.341Z,994.77
2019-01-30T01:12:04.940Z,994.76
2019-01-30T01:12:59.441Z,994.79
2019-01-30T01:13:00.014Z,994.79
2019-01-30T01:13:00.617Z,994.80
2019-01-30T01:13:01.215Z,994.80
2019-01-30T01:13:01.814Z,994.76
2019-01-30T01:13:02.414Z,994.78
2019-01-30T01:13:03.014Z,994.76
2019-01-30T01:13:03.618Z,994.76
2019-01-30T01:13:58.118Z,994.80
2019-01-30T01:13:58.692Z,994.78
2019-01-30T01:13:59.290Z,994.72
2019-01-30T01:13:59.891Z,994.74
2019-01-30T01:14:00.491Z,994.75
2019-01-30T01:14:01.092Z,994.74
2019-01-30T01:14:01.690Z,994.71
2019-01-30T01:14:02.293Z,994.74
2019-01-30T01:14:56.794Z,994.76
2019-01-30T01:14:57.367Z,994.79
2019-01-30T01:14:57.965Z,994.74
2019-01-30T01:14:58.567Z,994.76
2019-01-30T01:14:59.166Z,994.74
2019-01-30T01:14:59.765Z,994.74
2019-01-30T01:15:00.364Z,994.73
2019-01-30T01:15:00.969Z,994.70
2019-01-30T01:15:55.470Z,994.72
2019-01-30T01:15:56.043Z,994.75
2019-01-30T01:15:56.641Z,994.76
2019-01-30T01:15:57.241Z,994.78
2019-01-30T01:15:57.843Z,994.77
2019-01-30T01:15:58.441Z,994.77
2019-01-30T01:15:59.041Z,994.77
2019-01-30T01:15:59.640Z,994.73
2019-01-30T01:16:54.143Z,994.75
2019-01-30T01:16:54.718Z,994.75
2019-01-30T01:16:55.317Z,994.72
2019-01-30T01:16:55.918Z,994.73
2019-01-30T01:16:56.517Z,994.72
2019-01-30T01:16:57.117Z,994.70
2019-01-30T01:16:57.718Z,994.69
2019-01-30T01:16:58.317Z,994.66
2019-01-30T01:17:51.800Z,994.73
2019-01-30T01:17:52.370Z,994.71
2019-01-30T01:17:52.970Z,994.71
2019-01-30T01:17:53.570Z,994.69
2019-01-30T01:17:54.171Z,994.69
2019-01-30T01:17:54.770Z,994.71
2019-01-30T01:17:55.369Z,994.68
2019-01-30T01:17:55.969Z,994.68
2019-01-30T01:18:49.449Z,994.71
2019-01-30T01:18:50.023Z,994.71
2019-01-30T01:18:50.627Z,994.70
2019-01-30T01:18:51.221Z,994.70
2019-01-30T01:18:51.928Z,994.66
2019-01-30T01:18:52.421Z,994.68
2019-01-30T01:18:53.021Z,994.66
2019-01-30T01:18:53.622Z,994.66
2019-01-30T01:19:48.124Z,994.70
2019-01-30T01:19:48.699Z,994.71
2019-01-30T01:19:49.297Z,994.73
2019-01-30T01:19:49.897Z,994.74
2019-01-30T01:19:50.496Z,994.70
2019-01-30T01:19:51.095Z,994.68
2019-01-30T01:19:51.695Z,994.66
2019-01-30T01:19:52.296Z,994.65
2019-01-30T01:20:45.777Z,994.68
2019-01-30T01:20:46.353Z,994.69
2019-01-30T01:20:46.950Z,994.68
2019-01-30T01:20:47.549Z,994.70
2019-01-30T01:20:48.150Z,994.65
2019-01-30T01:20:48.748Z,994.67
2019-01-30T01:20:49.349Z,994.63
2019-01-30T01:20:49.949Z,994.63
2019-01-30T01:21:43.428Z,994.68
2019-01-30T01:21:44.002Z,994.70
2019-01-30T01:21:44.601Z,994.69
2019-01-30T01:21:45.200Z,994.70
2019-01-30T01:21:45.802Z,994.66
2019-01-30T01:21:46.400Z,994.66
2019-01-30T01:21:47.002Z,994.68
2019-01-30T01:21:47.602Z,994.67
2019-01-30T01:22:41.083Z,994.70
2019-01-30T01:22:41.654Z,994.70
2019-01-30T01:22:42.251Z,994.69
2019-01-30T01:22:42.850Z,994.64
2019-01-30T01:22:43.451Z,994.69
2019-01-30T01:22:44.050Z,994.69
2019-01-30T01:22:44.650Z,994.59
2019-01-30T01:22:45.249Z,994.66
2019-01-30T01:23:39.756Z,994.69
2019-01-30T01:23:40.328Z,994.72
2019-01-30T01:23:40.929Z,994.69
2019-01-30T01:23:41.528Z,994.69
2019-01-30T01:23:42.127Z,994.67
2019-01-30T01:23:42.726Z,994.63
2019-01-30T01:23:43.327Z,994.65
2019-01-30T01:23:43.928Z,994.67
2019-01-30T01:24:37.407Z,994.70
2019-01-30T01:24:37.982Z,994.69
2019-01-30T01:24:38.580Z,994.70
2019-01-30T01:24:39.179Z,994.70
2019-01-30T01:24:39.779Z,994.70
2019-01-30T01:24:40.380Z,994.69
2019-01-30T01:24:40.979Z,994.69
2019-01-30T01:24:41.578Z,994.69
2019-01-30T01:25:35.060Z,994.73
2019-01-30T01:25:35.631Z,994.72
2019-01-30T01:25:36.230Z,994.70
2019-01-30T01:25:36.831Z,994.66
2019-01-30T01:25:37.432Z,994.71
2019-01-30T01:25:38.030Z,994.69
2019-01-30T01:25:38.630Z,994.71
2019-01-30T01:25:39.231Z,994.74
2019-01-30T01:26:33.735Z,994.70
2019-01-30T01:26:34.307Z,994.69
2019-01-30T01:26:34.908Z,994.64
2019-01-30T01:26:35.513Z,994.70
2019-01-30T01:26:36.105Z,994.68
2019-01-30T01:26:36.705Z,994.68
2019-01-30T01:26:37.306Z,994.69
2019-01-30T01:26:37.906Z,994.70
2019-01-30T01:27:32.410Z,994.71
2019-01-30T01:27:32.983Z,994.74
2019-01-30T01:27:33.582Z,994.69
2019-01-30T01:27:34.182Z,994.68
2019-01-30T01:27:34.782Z,994.72
2019-01-30T01:27:35.382Z,994.70
2019-01-30T01:27:35.982Z,994.72
2019-01-30T01:27:36.582Z,994.71
2019-01-30T01:28:30.061Z,994.68
2019-01-30T01:28:30.635Z,994.70
2019-01-30T01:28:31.236Z,994.70
2019-01-30T01:28:31.835Z,994.72
2019-01-30T01:28:32.434Z,994.70
2019-01-30T01:28:33.034Z,994.71
2019-01-30T01:28:33.636Z,994.68
2019-01-30T01:28:34.235Z,994.66
2019-01-30T01:29:28.737Z,994.70
2019-01-30T01:29:29.311Z,994.67
2019-01-30T01:29:29.912Z,994.68
2019-01-30T01:29:30.510Z,994.68
2019-01-30T01:29:31.109Z,994.67
2019-01-30T01:29:31.709Z,994.67
2019-01-30T01:29:32.309Z,994.64
2019-01-30T01:29:32.909Z,994.63
2019-01-30T01:30:26.392Z,994.66
2019-01-30T01:30:26.963Z,994.67
2019-01-30T01:30:27.561Z,994.68
2019-01-30T01:30:28.161Z,994.65
2019-01-30T01:30:28.762Z,994.61
2019-01-30T01:30:29.362Z,994.65
2019-01-30T01:30:29.961Z,994.66
2019-01-30T01:30:30.561Z,994.66
2019-01-30T01:31:24.042Z,994.67
2019-01-30T01:31:24.616Z,994.71
2019-01-30T01:31:25.214Z,994.65
2019-01-30T01:31:25.813Z,994.67
2019-01-30T01:31:26.417Z,994.66
2019-01-30T01:31:27.014Z,994.67
2019-01-30T01:31:27.613Z,994.68
2019-01-30T01:31:28.213Z,994.67
2019-01-30T01:32:21.694Z,994.67
2019-01-30T01:32:22.265Z,994.70
2019-01-30T01:32:22.865Z,994.68
2019-01-30T01:32:23.465Z,994.66
2019-01-30T01:32:24.065Z,994.72
2019-01-30T01:32:24.665Z,994.70
2019-01-30T01:32:25.264Z,994.66
2019-01-30T01:32:25.870Z,994.64
2019-01-30T01:33:19.344Z,994.71
2019-01-30T01:33:19.919Z,994.71
2019-01-30T01:33:20.518Z,994.72
2019-01-30T01:33:21.117Z,994.71
2019-01-30T01:33:21.717Z,994.71
2019-01-30T01:33:22.317Z,994.71
2019-01-30T01:33:22.917Z,994.73
2019-01-30T01:33:23.518Z,994.72
2019-01-30T01:34:16.995Z,994.71
2019-01-30T01:34:17.569Z,994.72
2019-01-30T01:34:18.168Z,994.74
2019-01-30T01:34:18.768Z,994.73
2019-01-30T01:34:19.370Z,994.72
2019-01-30T01:34:19.968Z,994.72
2019-01-30T01:34:20.567Z,994.74
2019-01-30T01:34:21.168Z,994.73
2019-01-30T01:35:27.344Z,994.71
2019-01-30T01:35:27.918Z,994.74
2019-01-30T01:35:28.519Z,994.73
2019-01-30T01:35:29.119Z,994.74
2019-01-30T01:35:29.717Z,994.73
2019-01-30T01:35:30.319Z,994.73
2019-01-30T01:35:30.919Z,994.70
2019-01-30T01:35:31.517Z,994.71
2019-01-30T01:36:26.021Z,994.68
2019-01-30T01:36:26.593Z,994.74
2019-01-30T01:36:27.194Z,994.71
2019-01-30T01:36:27.796Z,994.70
2019-01-30T01:36:28.393Z,994.71
2019-01-30T01:36:28.992Z,994.70
2019-01-30T01:36:29.593Z,994.73
2019-01-30T01:36:30.192Z,994.72
2019-01-30T01:37:24.704Z,994.66
2019-01-30T01:37:25.270Z,994.70
2019-01-30T01:37:25.871Z,994.71
2019-01-30T01:37:26.468Z,994.73
2019-01-30T01:37:27.070Z,994.72
2019-01-30T01:37:27.668Z,994.72
2019-01-30T01:37:28.269Z,994.71
2019-01-30T01:37:28.869Z,994.70
2019-01-30T01:38:22.348Z,994.73
2019-01-30T01:38:22.924Z,994.75
2019-01-30T01:38:23.522Z,994.69
2019-01-30T01:38:24.124Z,994.69
2019-01-30T01:38:24.722Z,994.75
2019-01-30T01:38:25.320Z,994.72
2019-01-30T01:38:25.925Z,994.68
2019-01-30T01:38:26.521Z,994.71
2019-01-30T01:39:21.022Z,994.75
2019-01-30T01:39:21.596Z,994.72
2019-01-30T01:39:22.196Z,994.72
2019-01-30T01:39:22.795Z,994.75
2019-01-30T01:39:23.395Z,994.76
2019-01-30T01:39:24.049Z,994.76
2019-01-30T01:39:24.597Z,994.76
2019-01-30T01:39:25.197Z,994.69
2019-01-30T01:40:19.700Z,994.71
2019-01-30T01:40:20.271Z,994.75
2019-01-30T01:40:20.873Z,994.69
2019-01-30T01:40:21.472Z,994.70
2019-01-30T01:40:22.074Z,994.71
2019-01-30T01:40:22.671Z,994.67
2019-01-30T01:40:23.270Z,994.71
2019-01-30T01:40:23.872Z,994.75
2019-01-30T01:41:17.353Z,994.71
2019-01-30T01:41:17.928Z,994.74
2019-01-30T01:41:18.527Z,994.74
2019-01-30T01:41:19.126Z,994.71
2019-01-30T01:41:19.728Z,994.71
2019-01-30T01:41:20.325Z,994.73
2019-01-30T01:41:20.923Z,994.71
2019-01-30T01:41:21.523Z,994.72
2019-01-30T01:42:15.004Z,994.67
2019-01-30T01:42:15.577Z,994.70
2019-01-30T01:42:16.176Z,994.66
2019-01-30T01:42:16.779Z,994.70
2019-01-30T01:42:17.375Z,994.64
2019-01-30T01:42:17.976Z,994.69
2019-01-30T01:42:18.575Z,994.72
2019-01-30T01:42:19.175Z,994.72
2019-01-30T01:43:13.678Z,994.70
2019-01-30T01:43:14.250Z,994.68
2019-01-30T01:43:14.850Z,994.71
2019-01-30T01:43:15.451Z,994.71
2019-01-30T01:43:16.050Z,994.72
2019-01-30T01:43:16.649Z,994.73
2019-01-30T01:43:17.250Z,994.71
2019-01-30T01:43:17.854Z,994.73
2019-01-30T01:44:11.332Z,994.72
2019-01-30T01:44:11.908Z,994.72
2019-01-30T01:44:12.505Z,994.73
2019-01-30T01:44:13.103Z,994.70
2019-01-30T01:44:13.705Z,994.69
2019-01-30T01:44:14.305Z,994.70
2019-01-30T01:44:14.905Z,994.74
2019-01-30T01:44:15.502Z,994.72
2019-01-30T01:45:08.981Z,994.68
2019-01-30T01:45:09.556Z,994.68
2019-01-30T01:45:10.245Z,994.71
2019-01-30T01:45:10.755Z,994.73
2019-01-30T01:45:11.356Z,994.77
2019-01-30T01:45:11.955Z,994.68
2019-01-30T01:45:12.554Z,994.71
2019-01-30T01:45:13.154Z,994.73
2019-01-30T01:46:06.634Z,994.69
2019-01-30T01:46:07.206Z,994.67
2019-01-30T01:46:07.806Z,994.70
2019-01-30T01:46:08.406Z,994.70
2019-01-30T01:46:09.008Z,994.69
2019-01-30T01:46:09.607Z,994.69
2019-01-30T01:46:10.206Z,994.73
2019-01-30T01:46:10.809Z,994.71
2019-01-30T01:47:04.286Z,994.71
2019-01-30T01:47:04.859Z,994.70
2019-01-30T01:47:05.459Z,994.71
2019-01-30T01:47:06.059Z,994.70
2019-01-30T01:47:06.658Z,994.75
2019-01-30T01:47:07.258Z,994.75
2019-01-30T01:47:07.857Z,994.74
2019-01-30T01:47:08.458Z,994.70
2019-01-30T01:48:02.961Z,994.71
2019-01-30T01:48:03.534Z,994.71
2019-01-30T01:48:04.133Z,994.72
2019-01-30T01:48:04.733Z,994.72
2019-01-30T01:48:05.333Z,994.73
2019-01-30T01:48:05.933Z,994.71
2019-01-30T01:48:06.533Z,994.71
2019-01-30T01:48:07.135Z,994.69
2019-01-30T01:49:01.637Z,994.67
2019-01-30T01:49:02.213Z,994.68
2019-01-30T01:49:02.808Z,994.73
2019-01-30T01:49:03.409Z,994.72
2019-01-30T01:49:04.007Z,994.70
2019-01-30T01:49:04.608Z,994.72
2019-01-30T01:49:05.207Z,994.72
2019-01-30T01:49:05.808Z,994.72
2019-01-30T01:49:59.290Z,994.68
2019-01-30T01:49:59.866Z,994.70
2019-01-30T01:50:00.462Z,994.69
2019-01-30T01:50:01.075Z,994.68
2019-01-30T01:50:01.661Z,994.68
2019-01-30T01:50:02.262Z,994.70
2019-01-30T01:50:02.862Z,994.69
2019-01-30T01:50:03.461Z,994.71
2019-01-30T01:50:57.965Z,994.69
2019-01-30T01:50:58.537Z,994.70
2019-01-30T01:50:59.137Z,994.71
2019-01-30T01:50:59.739Z,994.69
2019-01-30T01:51:00.336Z,994.69
2019-01-30T01:51:00.936Z,994.74
2019-01-30T01:51:01.535Z,994.72
2019-01-30T01:51:02.136Z,994.73
2019-01-30T01:51:56.640Z,994.67
2019-01-30T01:51:57.211Z,994.68
2019-01-30T01:51:57.817Z,994.66
2019-01-30T01:51:58.414Z,994.69
2019-01-30T01:51:59.012Z,994.68
2019-01-30T01:51:59.612Z,994.67
2019-01-30T01:52:00.212Z,994.70
2019-01-30T01:52:00.812Z,994.69
2019-01-30T01:52:54.292Z,994.68
2019-01-30T01:52:54.866Z,994.68
2019-01-30T01:52:55.464Z,994.66
2019-01-30T01:52:56.065Z,994.67
2019-01-30T01:52:56.668Z,994.68
2019-01-30T01:52:57.266Z,994.68
2019-01-30T01:52:57.866Z,994.68
2019-01-30T01:52:58.466Z,994.69
2019-01-30T01:53:52.968Z,994.65
2019-01-30T01:53:53.540Z,994.70
2019-01-30T01:53:54.139Z,994.68
2019-01-30T01:53:54.740Z,994.68
2019-01-30T01:53:55.342Z,994.67
2019-01-30T01:53:55.939Z,994.71
2019-01-30T01:53:56.539Z,994.68
2019-01-30T01:53:57.141Z,994.70
2019-01-30T01:54:51.644Z,994.68
2019-01-30T01:54:52.218Z,994.73
2019-01-30T01:54:52.814Z,994.72
2019-01-30T01:54:53.414Z,994.72
2019-01-30T01:54:54.014Z,994.71
2019-01-30T01:54:54.614Z,994.72
2019-01-30T01:54:55.214Z,994.69
2019-01-30T01:54:55.816Z,994.72
2019-01-30T01:55:49.296Z,994.69
2019-01-30T01:55:49.868Z,994.68
2019-01-30T01:55:50.468Z,994.71
2019-01-30T01:55:51.069Z,994.71
2019-01-30T01:55:51.671Z,994.71
2019-01-30T01:55:52.267Z,994.71
2019-01-30T01:55:52.867Z,994.68
2019-01-30T01:55:53.470Z,994.68
2019-01-30T01:56:46.947Z,994.65
2019-01-30T01:56:47.520Z,994.64
2019-01-30T01:56:48.120Z,994.68
2019-01-30T01:56:48.721Z,994.68
2019-01-30T01:56:49.320Z,994.68
2019-01-30T01:56:49.920Z,994.71
2019-01-30T01:56:50.520Z,994.69
2019-01-30T01:56:51.119Z,994.68
2019-01-30T01:57:45.627Z,994.66
2019-01-30T01:57:46.195Z,994.69
2019-01-30T01:57:46.794Z,994.68
2019-01-30T01:57:47.395Z,994.69
2019-01-30T01:57:47.993Z,994.65
2019-01-30T01:57:48.593Z,994.66
2019-01-30T01:57:49.217Z,994.65
2019-01-30T01:57:49.795Z,994.64
2019-01-30T01:58:44.296Z,994.67
2019-01-30T01:58:44.870Z,994.63
2019-01-30T01:58:45.474Z,994.64
2019-01-30T01:58:46.071Z,994.66
2019-01-30T01:58:46.670Z,994.64